Time;durP1;ratioP1;P1;durP2;ratioP2;P2;SDS_P1;SDS_P2;PMS_P1;PMS_P2;Temp;Humidity;BMP_temperature;BMP_pressure;BME280_temperature;BME280_humidity;BME280_pressure;Samples;Min_cycle;Max_cycle;Signal;HPM_P1;HPM_P2
2022/06/03 00:02:01;;;;;;;1.52;0.70;;;23.10;41.00;;;;;;5094633;28;20032;-51
2022/06/03 00:04:52;;;;;;;0.80;0.68;;;23.10;41.00;;;;;;5076729;28;20020;-50
2022/06/03 00:07:30;;;;;;;1.58;0.80;;;23.10;41.00;;;;;;5076341;28;20536;-50
2022/06/03 00:10:19;;;;;;;1.00;0.70;;;23.10;41.00;;;;;;5059530;28;20031;-52
2022/06/03 00:13:04;;;;;;;0.50;0.50;;;23.00;41.00;;;;;;5079359;28;20016;-48
2022/06/03 00:15:39;;;;;;;0.65;0.50;;;23.10;41.00;;;;;;5094852;28;20047;-48
2022/06/03 00:18:35;;;;;;;0.82;0.50;;;23.10;41.00;;;;;;5094102;28;20028;-49
2022/06/03 00:21:07;;;;;;;0.60;0.50;;;23.10;41.00;;;;;;5076720;28;20024;-50
2022/06/03 00:23:58;;;;;;;0.82;0.60;;;23.10;41.00;;;;;;5041340;28;20032;-52
2022/06/03 00:26:48;;;;;;;0.70;0.60;;;23.00;41.00;;;;;;5074550;28;20033;-51
2022/06/03 00:29:24;;;;;;;0.60;0.52;;;23.00;41.00;;;;;;5073978;28;20031;-48
2022/06/03 00:31:59;;;;;;;0.95;0.50;;;23.00;41.00;;;;;;5074297;28;20025;-50
2022/06/03 00:34:43;;;;;;;1.20;0.70;;;23.00;41.00;;;;;;5056325;28;20020;-48
2022/06/03 00:37:27;;;;;;;0.60;0.43;;;23.00;41.00;;;;;;5074658;28;20059;-52
2022/06/03 00:40:30;;;;;;;0.82;0.57;;;23.00;41.10;;;;;;5074636;28;20019;-51
2022/06/03 00:43:24;;;;;;;0.70;0.50;;;23.00;41.10;;;;;;5074509;28;20467;-50
2022/06/03 00:45:53;;;;;;;0.80;0.65;;;23.00;41.00;;;;;;5074188;28;20017;-51
2022/06/03 00:48:49;;;;;;;1.13;0.70;;;23.00;41.10;;;;;;5073581;28;20016;-50
2022/06/03 00:51:20;;;;;;;0.47;0.47;;;23.00;41.10;;;;;;5047343;28;20028;-52
2022/06/03 00:53:55;;;;;;;1.50;0.70;;;23.00;41.00;;;;;;5073730;28;20115;-51
2022/06/03 00:56:38;;;;;;;0.60;0.60;;;23.00;41.00;;;;;;5073470;28;20020;-49
2022/06/03 00:59:42;;;;;;;0.82;0.80;;;23.00;41.00;;;;;;5073345;28;20092;-48
2022/06/03 01:02:40;;;;;;;0.70;0.68;;;22.90;41.10;;;;;;5073266;28;20016;-54
2022/06/03 01:05:31;;;;;;;0.90;0.60;;;23.00;41.10;;;;;;5072978;28;20087;-48
2022/06/03 01:08:08;;;;;;;1.23;0.55;;;23.00;41.10;;;;;;5073451;28;20712;-51
2022/06/03 01:11:05;;;;;;;0.60;0.52;;;22.90;41.10;;;;;;5039540;28;20019;-49
2022/06/03 01:13:45;;;;;;;1.83;0.65;;;22.90;41.10;;;;;;5073865;28;20017;-46
2022/06/03 01:16:20;;;;;;;1.17;0.60;;;22.90;41.10;;;;;;5056887;28;20082;-48
2022/06/03 01:19:24;;;;;;;1.05;0.60;;;22.90;41.20;;;;;;5074352;28;20028;-46
2022/06/03 01:22:19;;;;;;;0.80;0.75;;;22.90;41.20;;;;;;4979234;28;20182;-49
2022/06/03 01:24:56;;;;;;;0.88;0.65;;;22.90;41.20;;;;;;4993249;28;20046;-47
2022/06/03 01:27:42;;;;;;;1.63;0.80;;;22.90;41.20;;;;;;4977597;28;20031;-52
2022/06/03 01:30:08;;;;;;;0.68;0.60;;;22.90;41.20;;;;;;4991616;28;20035;-48
2022/06/03 01:32:55;;;;;;;0.77;0.60;;;22.90;41.20;;;;;;4992010;28;20045;-52
2022/06/03 01:35:39;;;;;;;0.75;0.60;;;22.90;41.20;;;;;;4976324;28;20085;-55
2022/06/03 01:38:43;;;;;;;1.20;0.70;;;22.90;41.20;;;;;;4991497;28;20042;-51
2022/06/03 01:41:12;;;;;;;0.57;0.47;;;22.90;41.30;;;;;;4978596;28;20023;-48
2022/06/03 01:44:13;;;;;;;1.00;0.77;;;22.90;41.30;;;;;;4980326;28;20077;-51
2022/06/03 01:46:45;;;;;;;1.25;0.80;;;22.90;41.30;;;;;;4917416;28;20028;-52
2022/06/03 01:49:39;;;;;;;1.67;0.90;;;22.90;41.20;;;;;;4981167;28;20046;-52
2022/06/03 01:52:07;;;;;;;0.65;0.60;;;22.80;41.20;;;;;;4997258;28;20030;-45
2022/06/03 01:54:55;;;;;;;1.05;0.65;;;22.80;41.20;;;;;;4996372;28;20118;-50
2022/06/03 01:57:37;;;;;;;1.25;0.70;;;22.80;41.20;;;;;;5097021;28;20063;-48
2022/06/03 02:00:22;;;;;;;0.50;0.50;;;22.80;41.20;;;;;;5079115;28;20413;-50
2022/06/03 02:02:56;;;;;;;0.73;0.60;;;22.80;41.30;;;;;;5096770;28;20467;-47
2022/06/03 02:05:59;;;;;;;0.60;0.60;;;22.80;41.30;;;;;;5078530;28;20016;-47
2022/06/03 02:08:46;;;;;;;0.85;0.70;;;22.80;41.30;;;;;;5096826;28;20471;-49
2022/06/03 02:11:25;;;;;;;1.13;0.70;;;22.80;41.30;;;;;;5097853;28;20475;-49
2022/06/03 02:14:30;;;;;;;1.02;0.60;;;22.80;41.30;;;;;;5080938;28;20031;-50
2022/06/03 02:17:11;;;;;;;0.50;0.50;;;22.80;41.30;;;;;;5080129;28;20040;-49
2022/06/03 02:20:13;;;;;;;1.08;0.60;;;22.80;41.30;;;;;;5080038;28;20040;-47
2022/06/03 02:22:52;;;;;;;0.65;0.65;;;22.80;41.30;;;;;;5097169;28;20109;-51
2022/06/03 02:25:52;;;;;;;0.88;0.60;;;22.80;41.40;;;;;;5097761;28;20012;-47
2022/06/03 02:28:39;;;;;;;0.80;0.80;;;22.80;41.40;;;;;;5099026;28;20023;-48
2022/06/03 02:31:26;;;;;;;0.80;0.60;;;22.80;41.40;;;;;;5098792;28;20027;-48
2022/06/03 02:34:11;;;;;;;0.65;0.60;;;22.80;41.40;;;;;;5098215;28;20079;-47
2022/06/03 02:37:06;;;;;;;0.77;0.57;;;22.70;41.40;;;;;;5079194;28;20077;-46
2022/06/03 02:39:46;;;;;;;1.50;0.70;;;22.70;41.40;;;;;;5043912;28;20132;-47
2022/06/03 02:42:27;;;;;;;0.70;0.45;;;22.70;41.40;;;;;;5079257;28;20020;-46
2022/06/03 02:45:12;;;;;;;1.15;0.70;;;22.70;41.50;;;;;;5079398;28;20008;-46
2022/06/03 02:47:47;;;;;;;0.45;0.40;;;22.70;41.40;;;;;;5095861;28;20046;-45
2022/06/03 02:50:16;;;;;;;2.15;0.60;;;22.70;41.40;;;;;;5095543;28;20024;-46
2022/06/03 02:52:44;;;;;;;0.50;0.50;;;22.70;41.40;;;;;;5095431;28;20023;-48
2022/06/03 02:55:35;;;;;;;0.77;0.60;;;22.70;41.50;;;;;;5095882;28;20021;-46
2022/06/03 02:58:24;;;;;;;0.57;0.50;;;22.70;41.50;;;;;;5078271;28;20028;-46
2022/06/03 03:01:08;;;;;;;1.25;0.60;;;22.70;41.50;;;;;;5095421;28;20031;-46
2022/06/03 03:04:01;;;;;;;0.47;0.47;;;22.70;41.50;;;;;;5095544;28;20012;-47
2022/06/03 03:06:44;;;;;;;0.80;0.60;;;22.70;41.50;;;;;;5095330;28;20019;-46
2022/06/03 03:09:22;;;;;;;1.63;1.10;;;22.70;41.60;;;;;;5095825;28;20016;-46
2022/06/03 03:12:00;;;;;;;0.88;0.60;;;22.70;41.60;;;;;;5095559;28;20028;-46
2022/06/03 03:14:51;;;;;;;0.60;0.60;;;22.60;41.50;;;;;;5095007;28;20077;-47
2022/06/03 03:17:51;;;;;;;1.60;0.70;;;22.70;41.60;;;;;;5095467;28;20054;-50
2022/06/03 03:20:51;;;;;;;1.23;0.67;;;22.60;41.60;;;;;;5027091;28;20012;-52
2022/06/03 03:23:45;;;;;;;0.65;0.60;;;22.70;41.70;;;;;;5081594;28;21105;-50
2022/06/03 03:26:13;;;;;;;1.40;0.70;;;22.60;41.60;;;;;;5096668;28;20016;-52
2022/06/03 03:28:42;;;;;;;0.88;0.57;;;22.60;41.70;;;;;;5096127;28;20031;-50
2022/06/03 03:31:34;;;;;;;0.60;0.57;;;22.60;41.70;;;;;;5077978;28;20097;-51
2022/06/03 03:34:18;;;;;;;1.08;0.70;;;22.60;41.70;;;;;;4994079;28;20038;-52
2022/06/03 03:37:11;;;;;;;0.90;0.60;;;22.60;41.80;;;;;;4994032;28;20456;-51
2022/06/03 03:40:04;;;;;;;1.30;0.65;;;22.60;41.70;;;;;;4994237;28;20026;-49
2022/06/03 03:43:21;;;;;;;0.65;0.50;;;22.60;41.70;;;;;;4993881;28;20477;-50
2022/06/03 03:45:54;;;;;;;0.85;0.65;;;22.60;41.80;;;;;;4968996;28;20033;-51
2022/06/03 03:48:38;;;;;;;0.63;0.50;;;22.60;41.80;;;;;;4993244;28;20038;-48
2022/06/03 03:51:26;;;;;;;0.93;0.55;;;22.60;41.80;;;;;;4993252;28;20026;-51
2022/06/03 03:53:54;;;;;;;0.70;0.60;;;22.60;41.80;;;;;;4993347;28;20023;-50
2022/06/03 03:56:42;;;;;;;1.60;0.85;;;22.60;41.80;;;;;;4993162;28;20041;-51
2022/06/03 03:59:39;;;;;;;0.88;0.63;;;22.60;41.90;;;;;;4992985;28;20040;-51
2022/06/03 04:02:07;;;;;;;1.05;0.70;;;22.50;41.80;;;;;;4976983;28;20041;-50
2022/06/03 04:04:57;;;;;;;0.95;0.65;;;22.60;41.90;;;;;;4992250;28;20070;-51
2022/06/03 04:07:38;;;;;;;1.27;0.88;;;22.60;41.90;;;;;;4993057;28;20038;-51
2022/06/03 04:10:26;;;;;;;0.57;0.57;;;22.60;41.90;;;;;;5011723;28;20035;-48
2022/06/03 04:13:30;;;;;;;0.75;0.70;;;22.50;41.90;;;;;;5094506;28;20024;-45
2022/06/03 04:16:01;;;;;;;0.88;0.65;;;22.60;41.90;;;;;;5094882;28;20036;-47
2022/06/03 04:19:05;;;;;;;0.90;0.60;;;22.60;41.90;;;;;;5094584;28;20076;-46
2022/06/03 04:21:37;;;;;;;0.57;0.57;;;22.60;41.90;;;;;;4994459;28;20046;-52
2022/06/03 04:24:18;;;;;;;1.85;0.75;;;22.60;41.80;;;;;;4995306;28;20097;-51
2022/06/03 04:26:52;;;;;;;0.50;0.50;;;22.60;41.80;;;;;;4994985;28;20046;-52
2022/06/03 04:29:51;;;;;;;0.82;0.60;;;22.60;41.90;;;;;;4961586;28;20030;-52
2022/06/03 04:32:42;;;;;;;0.80;0.80;;;22.50;41.90;;;;;;4993283;28;20023;-51
2022/06/03 04:35:40;;;;;;;0.70;0.65;;;22.50;41.90;;;;;;4993257;28;20030;-49
2022/06/03 04:38:27;;;;;;;1.30;0.60;;;22.50;41.90;;;;;;4954149;28;20034;-50
2022/06/03 04:41:11;;;;;;;0.98;0.75;;;22.50;41.90;;;;;;4975968;28;20036;-53
2022/06/03 04:43:58;;;;;;;2.28;0.80;;;22.50;41.80;;;;;;4992228;28;20129;-50
2022/06/03 04:47:02;;;;;;;0.73;0.70;;;22.50;41.90;;;;;;4992033;28;20022;-51
2022/06/03 04:49:47;;;;;;;0.82;0.70;;;22.50;41.90;;;;;;4992222;28;20520;-49
2022/06/03 04:52:58;;;;;;;1.00;0.65;;;22.50;41.90;;;;;;4992143;28;20069;-50
2022/06/03 04:56:03;;;;;;;1.17;0.70;;;22.50;41.90;;;;;;5024289;28;20071;-49
2022/06/03 04:58:48;;;;;;;0.50;0.50;;;22.50;41.90;;;;;;5093654;28;20103;-50
2022/06/03 05:01:33;;;;;;;0.60;0.40;;;22.50;41.90;;;;;;5093397;28;20028;-49
2022/06/03 05:04:04;;;;;;;0.60;0.50;;;22.50;41.90;;;;;;5093987;28;20016;-46
2022/06/03 05:06:58;;;;;;;0.70;0.63;;;22.50;41.90;;;;;;5093607;28;20027;-50
2022/06/03 05:09:45;;;;;;;0.88;0.63;;;22.50;41.90;;;;;;5093813;28;20069;-51
2022/06/03 05:12:42;;;;;;;0.77;0.60;;;22.50;41.90;;;;;;5093510;28;20020;-50
2022/06/03 05:15:26;;;;;;;1.17;0.73;;;22.50;42.00;;;;;;5093362;28;20035;-46
2022/06/03 05:18:20;;;;;;;0.60;0.60;;;22.50;41.90;;;;;;5077191;28;20056;-50
2022/06/03 05:21:17;;;;;;;1.35;0.70;;;22.50;42.00;;;;;;5075534;28;20100;-49
2022/06/03 05:23:53;;;;;;;0.80;0.50;;;22.50;41.90;;;;;;5094931;28;20093;-49
2022/06/03 05:26:37;;;;;;;0.90;0.65;;;22.50;41.90;;;;;;5094176;28;20024;-52
2022/06/03 05:29:26;;;;;;;1.23;0.50;;;22.50;42.00;;;;;;5075725;28;20054;-51
2022/06/03 05:32:14;;;;;;;2.30;0.75;;;22.50;42.00;;;;;;5076320;28;20016;-53
2022/06/03 05:35:02;;;;;;;0.68;0.60;;;22.50;42.00;;;;;;5093640;28;20017;-49
2022/06/03 05:37:49;;;;;;;0.95;0.77;;;22.50;42.00;;;;;;5094230;28;20035;-52
2022/06/03 05:40:21;;;;;;;0.95;0.57;;;22.50;42.00;;;;;;5094152;28;20040;-52
2022/06/03 05:43:26;;;;;;;1.83;0.80;;;22.50;42.00;;;;;;5094109;28;20075;-53
2022/06/03 05:46:04;;;;;;;0.90;0.70;;;22.50;42.00;;;;;;5094196;28;20054;-50
2022/06/03 05:48:48;;;;;;;0.60;0.60;;;22.50;42.00;;;;;;5093822;28;20134;-52
2022/06/03 05:51:20;;;;;;;0.80;0.70;;;22.50;41.90;;;;;;5093660;28;20421;-50
2022/06/03 05:53:51;;;;;;;1.35;0.80;;;22.60;41.80;;;;;;5092730;28;20090;-54
2022/06/03 05:56:46;;;;;;;0.95;0.85;;;22.60;41.70;;;;;;5093507;28;20028;-54
2022/06/03 05:59:43;;;;;;;1.25;0.80;;;22.70;41.70;;;;;;5075213;28;20031;-53
2022/06/03 06:02:18;;;;;;;0.73;0.68;;;22.70;41.60;;;;;;5093094;28;20044;-52
2022/06/03 06:05:02;;;;;;;0.80;0.70;;;22.70;41.70;;;;;;5074834;28;20012;-50
2022/06/03 06:07:58;;;;;;;0.50;0.50;;;22.70;41.70;;;;;;5074459;28;20103;-59
2022/06/03 06:10:42;;;;;;;0.60;0.60;;;22.70;41.60;;;;;;5077603;28;20119;-58
2022/06/03 06:13:36;;;;;;;1.08;0.70;;;22.70;41.70;;;;;;5074229;28;20427;-57
2022/06/03 06:16:07;;;;;;;1.15;0.70;;;22.70;41.70;;;;;;5092341;28;20093;-56
2022/06/03 06:19:09;;;;;;;0.80;0.70;;;22.70;41.60;;;;;;5091155;28;20028;-56
2022/06/03 06:21:45;;;;;;;0.80;0.70;;;22.80;41.60;;;;;;5069326;28;20040;-55
2022/06/03 06:24:29;;;;;;;18.17;1.88;;;22.80;41.60;;;;;;5090742;28;20021;-57
2022/06/03 06:27:28;;;;;;;14.13;2.85;;;22.80;43.90;;;;;;5091765;28;20045;-57
2022/06/03 06:30:07;;;;;;;27.58;3.50;;;23.10;44.40;;;;;;5095680;28;20024;-53
2022/06/03 06:32:51;;;;;;;29.40;3.60;;;23.50;45.10;;;;;;5077209;28;20463;-58
2022/06/03 06:35:43;;;;;;;18.25;3.58;;;23.60;45.40;;;;;;5094829;28;20035;-58
2022/06/03 06:38:45;;;;;;;16.45;3.35;;;23.80;45.20;;;;;;5095396;28;20036;-58
2022/06/03 06:41:34;;;;;;;9.77;2.90;;;24.00;45.20;;;;;;5095357;28;20012;-57
2022/06/03 06:44:24;;;;;;;12.77;2.80;;;24.10;44.50;;;;;;5095918;28;20031;-58
2022/06/03 06:46:55;;;;;;;13.07;3.90;;;24.20;44.40;;;;;;5095303;28;20099;-56
2022/06/03 06:49:30;;;;;;;13.93;2.72;;;24.10;44.30;;;;;;5076965;28;20044;-57
2022/06/03 06:52:00;;;;;;;11.93;3.00;;;24.20;44.30;;;;;;5076789;28;20019;-55
2022/06/03 06:54:45;;;;;;;13.80;2.70;;;24.20;44.20;;;;;;5075663;28;20156;-56
2022/06/03 06:57:43;;;;;;;16.80;3.33;;;24.20;44.40;;;;;;5077594;28;20135;-56
2022/06/03 07:00:26;;;;;;;13.65;2.90;;;24.30;44.20;;;;;;5062724;28;20013;-56
2022/06/03 07:03:09;;;;;;;12.90;3.20;;;24.30;44.40;;;;;;5060179;28;20098;-52
2022/06/03 07:05:40;;;;;;;13.55;2.92;;;24.30;44.20;;;;;;5077640;28;20016;-55
2022/06/03 07:08:11;;;;;;;7.80;2.67;;;24.40;44.10;;;;;;5077353;28;20066;-58
2022/06/03 07:10:49;;;;;;;7.80;2.42;;;24.40;44.00;;;;;;5076169;28;20020;-52
2022/06/03 07:13:28;;;;;;;11.82;2.95;;;24.50;43.80;;;;;;5093455;28;20043;-54
2022/06/03 07:16:14;;;;;;;32.40;3.85;;;24.40;43.60;;;;;;5074481;28;20021;-58
2022/06/03 07:21:51;;;;;;;14.27;3.05;;;24.30;42.90;;;;;;5077325;28;20115;-56
2022/06/03 07:24:38;;;;;;;14.30;3.10;;;24.10;42.40;;;;;;5074654;28;20446;-57
2022/06/03 07:27:08;;;;;;;11.30;3.15;;;23.90;42.00;;;;;;5093907;28;20012;-58
2022/06/03 07:30:02;;;;;;;9.27;2.80;;;23.70;41.20;;;;;;5058731;28;20024;-57
2022/06/03 07:32:47;;;;;;;7.10;2.95;;;23.60;42.00;;;;;;5094141;28;20094;-58
2022/06/03 07:35:22;;;;;;;17.27;3.40;;;23.60;41.60;;;;;;5094304;28;20091;-60
2022/06/03 07:38:02;;;;;;;6.72;2.85;;;23.60;41.60;;;;;;5075989;28;20020;-57
2022/06/03 07:40:49;;;;;;;6.70;2.75;;;23.50;41.50;;;;;;5092424;28;20014;-58
2022/06/03 07:43:26;;;;;;;9.75;2.50;;;23.40;41.00;;;;;;5092992;28;20044;-58
2022/06/03 07:45:58;;;;;;;6.55;2.50;;;23.40;41.20;;;;;;5074871;28;20012;-58
2022/06/03 07:48:26;;;;;;;9.82;2.60;;;23.50;41.10;;;;;;5092668;28;20524;-56
2022/06/03 07:50:58;;;;;;;7.53;2.65;;;23.40;41.10;;;;;;5058249;28;20087;-56
2022/06/03 07:53:30;;;;;;;5.70;2.83;;;23.40;41.50;;;;;;5092607;28;20470;-57
2022/06/03 07:55:56;;;;;;;6.82;2.45;;;23.40;41.60;;;;;;5057605;28;20105;-55
2022/06/03 07:58:24;;;;;;;5.70;2.38;;;23.50;41.70;;;;;;5058154;28;20234;-59
2022/06/03 08:00:50;;;;;;;6.70;2.40;;;23.50;41.80;;;;;;5092802;28;20214;-58
2022/06/03 08:03:23;;;;;;;10.10;2.20;;;23.50;41.80;;;;;;5093406;28;20507;-56
2022/06/03 08:05:57;;;;;;;12.45;2.50;;;23.60;42.00;;;;;;5093498;28;20059;-53
2022/06/03 08:11:17;;;;;;;14.15;2.78;;;23.40;42.10;;;;;;5093895;28;20027;-50
2022/06/03 08:13:42;;;;;;;11.88;3.00;;;23.30;42.30;;;;;;5093040;28;20442;-54
2022/06/03 08:16:35;;;;;;;11.57;2.42;;;23.30;42.50;;;;;;5074453;28;20110;-53
2022/06/03 08:19:21;;;;;;;10.93;3.20;;;23.30;42.50;;;;;;5078588;28;20047;-50
2022/06/03 08:21:52;;;;;;;11.98;2.72;;;23.20;42.90;;;;;;5057243;28;20478;-50
2022/06/03 08:24:30;;;;;;;23.20;3.53;;;23.40;42.90;;;;;;5092516;28;20530;-50
2022/06/03 08:27:04;;;;;;;19.63;3.15;;;23.30;43.10;;;;;;5074400;28;20008;-51
2022/06/03 08:29:32;;;;;;;15.45;3.03;;;23.40;43.00;;;;;;5092367;28;20086;-49
2022/06/03 08:31:58;;;;;;;10.35;2.63;;;23.40;42.70;;;;;;5092632;28;20077;-49
2022/06/03 08:34:44;;;;;;;6.03;2.22;;;23.20;43.00;;;;;;5093201;28;20016;-52
2022/06/03 08:37:13;;;;;;;7.90;2.85;;;23.50;42.60;;;;;;5074896;28;20098;-51
2022/06/03 08:39:39;;;;;;;7.07;2.83;;;23.50;42.60;;;;;;5093713;28;20016;-52
2022/06/03 08:42:27;;;;;;;7.65;2.53;;;23.50;42.70;;;;;;5057826;28;20421;-48
2022/06/03 08:45:07;;;;;;;3.03;1.83;;;23.60;42.60;;;;;;5092518;28;20494;-50
2022/06/03 08:47:47;;;;;;;10.35;2.50;;;23.70;42.60;;;;;;5074116;28;20012;-52
2022/06/03 08:50:22;;;;;;;7.85;2.30;;;23.70;42.90;;;;;;5092576;28;20024;-51
2022/06/03 08:52:57;;;;;;;8.98;2.17;;;23.70;42.60;;;;;;5092422;28;20027;-51
2022/06/03 08:55:40;;;;;;;10.43;2.42;;;23.60;42.80;;;;;;5092702;28;20031;-53
2022/06/03 08:58:36;;;;;;;11.27;2.83;;;23.70;42.90;;;;;;5092104;28;20146;-54
2022/06/03 09:01:19;;;;;;;4.95;2.50;;;23.60;42.50;;;;;;5076594;28;20020;-51
2022/06/03 09:04:13;;;;;;;6.50;2.30;;;23.50;42.50;;;;;;5074551;28;20004;-54
2022/06/03 09:07:10;;;;;;;23.77;2.58;;;23.50;42.80;;;;;;5073976;28;20020;-52
2022/06/03 09:10:04;;;;;;;7.07;2.33;;;23.50;43.10;;;;;;5073121;28;20011;-51
2022/06/03 09:12:30;;;;;;;57.40;5.10;;;23.40;43.10;;;;;;5091462;28;20058;-56
2022/06/03 09:15:13;;;;;;;20.75;3.03;;;23.60;44.10;;;;;;5092108;28;20119;-50
2022/06/03 09:17:49;;;;;;;13.45;2.60;;;23.80;44.40;;;;;;5091546;28;20016;-53
2022/06/03 09:20:29;;;;;;;24.25;3.10;;;23.90;44.10;;;;;;5092433;28;20032;-53
2022/06/03 09:23:08;;;;;;;21.85;3.40;;;23.90;44.30;;;;;;5091983;28;20033;-56
2022/06/03 09:25:35;;;;;;;16.85;3.28;;;23.90;44.20;;;;;;5057582;28;20396;-51
2022/06/03 09:28:06;;;;;;;14.75;2.67;;;23.80;44.30;;;;;;5074111;28;20038;-52
2022/06/03 09:30:40;;;;;;;8.70;2.83;;;23.80;44.00;;;;;;5057318;28;20099;-51
2022/06/03 09:33:08;;;;;;;17.63;2.45;;;23.80;44.00;;;;;;5092081;28;20012;-56
2022/06/03 09:35:36;;;;;;;9.45;2.50;;;23.80;44.40;;;;;;5091652;28;20111;-52
2022/06/03 09:38:02;;;;;;;11.25;2.63;;;23.80;44.30;;;;;;5040858;28;20111;-55
2022/06/03 09:40:31;;;;;;;16.90;2.85;;;23.80;44.20;;;;;;5091898;28;20120;-52
2022/06/03 09:43:11;;;;;;;9.57;2.15;;;23.90;44.40;;;;;;5057231;28;20032;-49
2022/06/03 09:45:37;;;;;;;9.68;2.22;;;23.80;44.10;;;;;;5073743;28;20043;-50
2022/06/03 09:48:04;;;;;;;6.65;2.53;;;24.00;44.30;;;;;;5057152;28;20386;-53
2022/06/03 09:50:30;;;;;;;25.40;2.97;;;23.90;42.60;;;;;;5073718;28;20103;-51
2022/06/03 09:53:09;;;;;;;24.10;2.97;;;23.90;44.30;;;;;;5073371;28;20031;-51
2022/06/03 09:55:40;;;;;;;10.60;2.10;;;23.90;44.40;;;;;;5072566;28;20033;-48
2022/06/03 09:58:10;;;;;;;14.52;2.90;;;24.00;44.10;;;;;;5074898;28;20475;-52
2022/06/03 10:00:42;;;;;;;14.20;2.50;;;24.00;43.70;;;;;;5060394;28;20042;-50
2022/06/03 10:03:09;;;;;;;18.77;2.40;;;23.90;43.40;;;;;;5077760;28;20014;-52
2022/06/03 10:05:36;;;;;;;11.35;2.15;;;23.80;43.00;;;;;;5097383;28;20016;-50
2022/06/03 10:08:07;;;;;;;10.48;2.10;;;23.80;42.70;;;;;;5063232;28;20016;-53
2022/06/03 10:13:17;;;;;;;8.38;2.45;;;23.70;42.50;;;;;;5098609;28;20098;-53
2022/06/03 10:15:47;;;;;;;7.22;2.22;;;23.60;42.00;;;;;;5098657;28;20016;-54
2022/06/03 10:18:31;;;;;;;5.53;1.60;;;23.60;42.20;;;;;;5097656;28;20024;-53
2022/06/03 10:21:05;;;;;;;5.45;1.60;;;23.60;42.40;;;;;;5097607;28;20024;-53
2022/06/03 10:23:35;;;;;;;5.47;1.70;;;23.60;42.10;;;;;;5097283;28;20478;-55
2022/06/03 10:26:01;;;;;;;5.53;1.75;;;23.50;41.80;;;;;;5098356;28;20032;-53
2022/06/03 10:28:37;;;;;;;8.45;1.90;;;23.50;41.50;;;;;;5079369;28;20443;-52
2022/06/03 10:31:12;;;;;;;4.30;1.35;;;23.50;41.70;;;;;;5078027;28;20496;-52
2022/06/03 10:33:38;;;;;;;3.00;1.58;;;23.50;41.20;;;;;;5078431;28;20044;-52
2022/06/03 10:36:05;;;;;;;7.78;1.85;;;23.60;40.90;;;;;;5097036;28;20353;-55
2022/06/03 10:38:33;;;;;;;7.63;1.50;;;23.50;40.40;;;;;;5096260;28;20020;-51
2022/06/03 10:41:09;;;;;;;3.60;1.50;;;23.60;40.30;;;;;;5095988;28;20012;-51
2022/06/03 10:43:36;;;;;;;5.28;1.48;;;23.50;40.30;;;;;;5095003;28;20093;-54
2022/06/03 10:46:11;;;;;;;4.10;1.38;;;23.60;39.80;;;;;;5094312;28;20131;-52
2022/06/03 10:48:36;;;;;;;2.45;1.38;;;23.60;39.80;;;;;;5093851;28;20389;-54
2022/06/03 11:02:32;;;;;;;6.88;1.52;;;24.70;40.40;;;;;;5094328;28;20028;-59
2022/06/03 11:05:25;;;;;;;11.30;1.80;;;24.90;40.60;;;;;;5094318;28;20016;-59
2022/06/03 11:08:06;;;;;;;17.75;2.47;;;25.00;41.00;;;;;;5093635;28;20181;-52
2022/06/03 11:10:53;;;;;;;10.55;2.08;;;25.10;40.90;;;;;;5093637;28;20032;-52
2022/06/03 11:13:39;;;;;;;16.15;2.50;;;25.30;40.80;;;;;;5093444;28;20024;-52
2022/06/03 11:16:24;;;;;;;23.90;2.30;;;25.30;41.30;;;;;;5093850;28;20130;-55
2022/06/03 11:18:49;;;;;;;14.85;2.50;;;25.40;40.50;;;;;;5074942;28;20123;-53
2022/06/03 11:21:27;;;;;;;14.48;2.13;;;25.50;40.60;;;;;;5094226;28;20028;-53
2022/06/03 11:23:56;;;;;;;15.20;2.88;;;25.50;41.10;;;;;;5093424;28;20031;-54
2022/06/03 11:26:33;;;;;;;25.20;2.88;;;25.60;41.30;;;;;;5093473;28;20024;-53
2022/06/03 11:29:17;;;;;;;25.77;3.17;;;25.60;40.10;;;;;;5075262;28;20500;-51
2022/06/03 11:31:45;;;;;;;16.08;2.25;;;25.60;39.80;;;;;;5058347;28;20463;-51
2022/06/03 11:34:22;;;;;;;21.30;2.45;;;25.40;36.60;;;;;;5075062;28;20008;-61
2022/06/03 11:36:58;;;;;;;12.38;2.00;;;25.40;37.50;;;;;;5093733;28;20054;-60
2022/06/03 11:39:43;;;;;;;13.90;2.40;;;25.30;35.90;;;;;;5074767;28;20431;-59
2022/06/03 11:42:24;;;;;;;19.48;2.55;;;25.00;35.90;;;;;;5092448;28;20150;-57
2022/06/03 11:44:56;;;;;;;14.65;2.00;;;24.90;36.90;;;;;;5093594;28;20020;-54
2022/06/03 11:47:26;;;;;;;10.95;2.25;;;25.00;35.80;;;;;;5059270;28;20008;-53
2022/06/03 11:49:52;;;;;;;16.70;1.85;;;25.00;36.20;;;;;;5075860;28;20052;-58
2022/06/03 11:52:17;;;;;;;7.55;1.40;;;25.00;35.60;;;;;;5058679;28;20142;-57
2022/06/03 11:54:44;;;;;;;4.78;1.40;;;25.00;34.00;;;;;;5075255;28;20555;-54
2022/06/03 11:57:11;;;;;;;6.72;1.58;;;25.00;34.70;;;;;;5093224;28;20501;-58
2022/06/03 11:59:38;;;;;;;7.50;1.67;;;25.00;34.80;;;;;;5093142;28;20111;-58
2022/06/03 12:02:10;;;;;;;5.55;1.40;;;24.90;35.10;;;;;;5093429;28;20039;-58
2022/06/03 12:04:48;;;;;;;127.28;12.90;;;24.80;35.60;;;;;;5092675;28;20079;-58
2022/06/03 12:07:27;;;;;;;11.82;1.65;;;24.90;35.10;;;;;;5093039;28;20093;-56
2022/06/03 12:10:11;;;;;;;8.52;1.73;;;25.00;34.70;;;;;;5093377;28;20020;-54
2022/06/03 12:15:35;;;;;;;2.85;1.05;;;25.10;34.70;;;;;;5077441;28;20031;-48
2022/06/03 12:18:09;;;;;;;6.68;1.08;;;24.90;33.50;;;;;;5074150;28;20024;-51
2022/06/03 12:20:50;;;;;;;2.50;1.10;;;24.90;34.90;;;;;;5092167;28;20464;-57
2022/06/03 12:23:15;;;;;;;6.97;1.20;;;24.90;35.60;;;;;;5074159;28;20051;-53
2022/06/03 12:25:54;;;;;;;6.22;1.52;;;25.00;35.40;;;;;;5092596;28;20073;-57
2022/06/03 12:28:26;;;;;;;10.75;1.67;;;25.10;34.60;;;;;;5092785;28;20038;-58
2022/06/03 12:30:59;;;;;;;17.02;2.85;;;25.30;35.90;;;;;;5092441;28;20016;-58
2022/06/03 12:33:26;;;;;;;18.77;2.45;;;25.40;36.40;;;;;;5058455;28;20062;-58
2022/06/03 12:35:52;;;;;;;27.20;4.28;;;25.40;36.10;;;;;;5093828;28;20038;-58
2022/06/03 12:38:21;;;;;;;13.43;1.65;;;25.30;37.00;;;;;;5093132;28;20110;-57
2022/06/03 12:40:54;;;;;;;6.65;1.58;;;25.10;35.50;;;;;;5093125;28;20127;-57
2022/06/03 12:43:29;;;;;;;9.18;2.10;;;25.20;34.80;;;;;;5074909;28;20019;-57
2022/06/03 12:46:09;;;;;;;10.65;1.90;;;25.20;35.10;;;;;;5092468;28;20043;-56
2022/06/03 12:48:43;;;;;;;3.90;1.13;;;25.20;35.30;;;;;;5092212;28;20423;-56
2022/06/03 12:51:28;;;;;;;5.68;1.33;;;25.20;34.60;;;;;;5092010;28;20556;-56
2022/06/03 12:54:15;;;;;;;7.15;1.45;;;25.30;35.20;;;;;;5092507;28;20023;-55
2022/06/03 12:56:48;;;;;;;9.20;1.70;;;25.40;34.90;;;;;;5073673;28;20024;-56
2022/06/03 12:59:45;;;;;;;10.07;1.95;;;25.30;35.00;;;;;;5092061;28;20028;-57
2022/06/03 13:02:21;;;;;;;8.90;1.65;;;25.20;34.70;;;;;;5091906;28;20043;-55
2022/06/03 13:04:55;;;;;;;5.10;1.50;;;25.20;34.60;;;;;;5092056;28;20346;-58
2022/06/03 13:07:27;;;;;;;7.88;1.52;;;25.20;33.80;;;;;;5073392;28;20031;-53
2022/06/03 13:09:58;;;;;;;13.57;1.60;;;25.30;34.90;;;;;;5092145;28;20024;-58
2022/06/03 13:12:28;;;;;;;5.35;1.50;;;25.40;35.10;;;;;;5074980;28;20027;-58
2022/06/03 13:14:54;;;;;;;8.88;1.77;;;25.20;34.90;;;;;;5073522;28;20027;-58
2022/06/03 13:18:07;;;;;;;7.97;1.92;;;25.10;35.20;;;;;;5091096;28;20111;-56
2022/06/03 13:20:43;;;;;;;5.43;1.48;;;25.10;33.90;;;;;;5074826;28;20146;-50
2022/06/03 13:23:44;;;;;;;4.78;1.25;;;25.00;34.70;;;;;;5093126;28;20097;-53
2022/06/03 13:26:22;;;;;;;6.55;1.20;;;24.90;33.80;;;;;;5093220;28;20021;-51
2022/06/03 13:28:48;;;;;;;6.35;1.40;;;24.90;34.00;;;;;;5092848;28;20178;-51
2022/06/03 13:31:21;;;;;;;4.45;1.38;;;24.80;34.10;;;;;;5092609;28;20091;-52
2022/06/03 13:34:05;;;;;;;4.90;1.20;;;24.80;34.20;;;;;;5092629;28;20043;-50
2022/06/03 13:36:50;;;;;;;3.42;1.10;;;24.80;34.30;;;;;;5093551;28;20052;-49
2022/06/03 13:39:18;;;;;;;4.95;1.20;;;24.90;34.10;;;;;;5096838;28;20032;-49
2022/06/03 13:44:44;;;;;;;3.35;1.27;;;24.90;34.20;;;;;;5097507;28;20504;-48
2022/06/03 13:47:19;;;;;;;6.88;1.20;;;25.00;34.20;;;;;;5097095;28;20031;-49
2022/06/03 13:50:14;;;;;;;5.50;1.10;;;25.00;34.20;;;;;;5078502;28;20022;-49
2022/06/03 13:52:46;;;;;;;6.22;1.00;;;25.00;34.10;;;;;;5096776;28;20095;-47
2022/06/03 13:55:41;;;;;;;3.88;1.00;;;25.10;34.10;;;;;;5096932;28;20020;-49
2022/06/03 13:58:26;;;;;;;2.35;1.00;;;25.10;34.20;;;;;;5078822;28;20012;-48
2022/06/03 14:00:58;;;;;;;5.28;1.23;;;25.20;33.90;;;;;;5096586;28;20095;-48
2022/06/03 14:03:37;;;;;;;4.88;1.08;;;25.30;33.80;;;;;;5096443;28;20016;-48
2022/06/03 14:06:42;;;;;;;2.78;1.15;;;25.30;33.70;;;;;;5096946;28;20012;-47
2022/06/03 14:09:16;;;;;;;6.63;1.00;;;25.40;33.50;;;;;;5096553;28;20043;-48
2022/06/03 14:11:46;;;;;;;2.83;1.08;;;25.40;33.40;;;;;;5080144;28;20035;-48
2022/06/03 14:14:27;;;;;;;2.92;1.00;;;25.50;33.40;;;;;;5078977;28;20023;-46
2022/06/03 14:17:02;;;;;;;1.63;0.75;;;25.60;33.30;;;;;;5079093;28;20023;-47
2022/06/03 14:19:56;;;;;;;5.53;0.82;;;25.60;33.30;;;;;;5079251;28;20016;-47